Time;durP1;ratioP1;P1;durP2;ratioP2;P2;SDS_P1;SDS_P2;PMS_P1;PMS_P2;Temp;Humidity;BMP_temperature;BMP_pressure;BME280_temperature;BME280_humidity;BME280_pressure;Samples;Min_cycle;Max_cycle;Signal;HPM_P1;HPM_P2
2023/10/12 00:01:59;;;;;;;10.60;1.67;;;13.10;99.90;;;;;;5041647;28;20482;-77
2023/10/12 00:07:10;;;;;;;8.00;1.30;;;13.10;99.90;;;;;;5057290;28;20042;-78
2023/10/12 00:09:36;;;;;;;5.60;1.02;;;13.10;99.90;;;;;;5044382;28;20100;-77
2023/10/12 00:12:07;;;;;;;6.97;1.25;;;13.10;99.90;;;;;;5049385;28;20068;-77
2023/10/12 00:14:35;;;;;;;9.90;1.20;;;13.00;99.90;;;;;;5045428;28;20040;-77
2023/10/12 00:17:00;;;;;;;12.68;1.55;;;13.10;99.90;;;;;;5024631;28;20044;-77
2023/10/12 00:19:27;;;;;;;6.95;1.52;;;12.90;99.90;;;;;;5040461;28;20048;-78
2023/10/12 00:22:00;;;;;;;6.20;1.15;;;13.00;99.90;;;;;;5021696;28;20045;-77
2023/10/12 00:24:27;;;;;;;12.27;1.70;;;12.90;99.90;;;;;;5016701;28;20048;-77
2023/10/12 00:26:53;;;;;;;10.02;1.48;;;13.00;99.90;;;;;;5028635;28;20044;-77
2023/10/12 00:29:20;;;;;;;8.60;1.80;;;13.10;99.90;;;;;;5018639;28;20048;-77
2023/10/12 00:31:47;;;;;;;10.20;1.55;;;13.00;99.90;;;;;;5039810;28;20770;-77
2023/10/12 00:34:14;;;;;;;4.30;1.23;;;13.00;99.90;;;;;;5051306;28;20036;-77
2023/10/12 00:36:41;;;;;;;12.23;1.63;;;13.00;99.90;;;;;;5046729;28;20044;-77
2023/10/12 00:39:09;;;;;;;7.95;1.83;;;13.00;99.90;;;;;;5037457;28;20076;-77
2023/10/12 00:41:37;;;;;;;8.85;0.95;;;13.00;99.90;;;;;;5043855;28;20037;-77
2023/10/12 00:49:14;;;;;;;8.57;1.40;;;12.90;99.90;;;;;;5046900;28;20048;-77
2023/10/12 00:52:21;;;;;;;11.90;1.75;;;13.00;99.90;;;;;;5027744;28;20090;-77
2023/10/12 00:54:56;;;;;;;4.75;1.00;;;12.90;99.90;;;;;;5037366;28;20041;-77
2023/10/12 00:57:22;;;;;;;11.27;1.70;;;13.00;99.90;;;;;;5060593;28;20077;-77
2023/10/12 00:59:51;;;;;;;11.65;1.58;;;13.00;99.90;;;;;;5041378;28;20136;-77
2023/10/12 01:02:21;;;;;;;7.30;1.52;;;13.00;99.90;;;;;;5049407;28;20053;-77
2023/10/12 01:04:48;;;;;;;9.55;1.10;;;13.00;99.90;;;;;;5052950;28;20044;-78
2023/10/12 01:07:21;;;;;;;6.68;1.73;;;13.00;99.90;;;;;;5040317;28;20114;-78
2023/10/12 01:09:54;;;;;;;7.13;1.30;;;12.90;99.90;;;;;;5040273;28;20045;-78
2023/10/12 01:12:19;;;;;;;5.32;1.17;;;12.90;99.90;;;;;;5036365;28;20127;-78
2023/10/12 01:14:54;;;;;;;6.25;1.10;;;12.90;99.90;;;;;;5011007;28;20468;-77
2023/10/12 01:17:29;;;;;;;7.25;1.17;;;12.80;99.90;;;;;;5029125;28;20106;-77
2023/10/12 01:19:58;;;;;;;9.73;1.30;;;12.80;99.90;;;;;;5033847;28;20047;-77
2023/10/12 01:22:31;;;;;;;10.52;1.67;;;12.80;99.90;;;;;;5044488;28;20051;-78
2023/10/12 01:25:10;;;;;;;9.15;1.33;;;12.80;99.90;;;;;;5036282;28;20045;-77
2023/10/12 01:27:41;;;;;;;5.63;1.50;;;12.80;99.90;;;;;;5035985;28;20049;-77
2023/10/12 01:30:22;;;;;;;12.55;1.70;;;12.80;99.90;;;;;;5033121;28;20072;-77
2023/10/12 01:32:59;;;;;;;11.15;1.95;;;12.80;99.90;;;;;;5045198;28;20098;-77
2023/10/12 01:35:38;;;;;;;11.82;1.60;;;12.80;99.90;;;;;;5027947;28;20044;-77
2023/10/12 01:38:05;;;;;;;8.68;1.30;;;12.80;99.90;;;;;;5047233;28;20056;-77
2023/10/12 01:43:17;;;;;;;7.57;1.63;;;12.80;99.90;;;;;;5048542;28;20049;-77
2023/10/12 01:46:28;;;;;;;10.57;2.10;;;12.70;99.90;;;;;;5044161;28;20112;-77
2023/10/12 01:48:35;;;;;;;5.05;1.52;;;12.70;99.90;;;;;;5029059;28;20052;-76
2023/10/12 01:51:16;;;;;;;13.07;1.77;;;12.80;99.90;;;;;;5056273;28;20033;-77
2023/10/12 01:53:42;;;;;;;9.77;1.42;;;12.80;99.90;;;;;;5029029;28;20053;-77
2023/10/12 01:56:11;;;;;;;7.88;2.05;;;12.80;99.90;;;;;;5048501;28;20124;-76
2023/10/12 01:58:43;;;;;;;7.50;1.42;;;12.70;99.90;;;;;;5026098;28;20045;-77
2023/10/12 02:01:13;;;;;;;10.60;1.55;;;12.80;99.90;;;;;;5042971;28;20060;-78
2023/10/12 02:03:42;;;;;;;11.15;1.45;;;12.70;99.90;;;;;;5030217;28;20037;-77
2023/10/12 02:06:14;;;;;;;7.57;1.60;;;12.80;99.90;;;;;;5050510;28;20037;-77
2023/10/12 02:08:45;;;;;;;6.35;1.27;;;12.80;99.90;;;;;;5028835;28;20040;-78
2023/10/12 02:11:26;;;;;;;11.68;2.25;;;12.80;99.90;;;;;;5041887;28;20449;-77
2023/10/12 02:13:55;;;;;;;7.85;1.70;;;12.80;99.90;;;;;;5036551;28;20045;-77
2023/10/12 02:16:31;;;;;;;4.70;1.20;;;12.80;99.90;;;;;;5036409;28;20060;-77
2023/10/12 02:18:57;;;;;;;7.05;1.50;;;12.70;99.90;;;;;;5032857;28;20106;-77
2023/10/12 02:21:25;;;;;;;8.95;1.80;;;12.70;99.90;;;;;;5026499;28;20053;-77
2023/10/12 02:26:41;;;;;;;13.10;2.38;;;12.70;99.90;;;;;;5043208;28;20597;-77
2023/10/12 02:34:16;;;;;;;13.07;1.75;;;12.70;99.90;;;;;;5036469;28;20045;-77
2023/10/12 02:39:31;;;;;;;11.57;1.70;;;12.70;99.90;;;;;;5049783;28;20045;-76
2023/10/12 02:44:36;;;;;;;9.43;1.75;;;12.60;99.90;;;;;;5040915;28;20045;-77
2023/10/12 02:47:12;;;;;;;12.57;2.10;;;12.60;99.90;;;;;;5036701;28;20099;-77
2023/10/12 02:49:41;;;;;;;;;;;12.50;99.90;;;;;;5032232;28;20063;-77
2023/10/12 02:52:08;;;;;;;17.52;2.17;;;12.50;99.90;;;;;;5039601;28;20007;-77
2023/10/12 02:54:41;;;;;;;16.05;3.13;;;12.50;99.90;;;;;;5054028;28;20048;-77
2023/10/12 02:57:07;;;;;;;9.75;2.25;;;12.50;99.90;;;;;;5045179;28;20500;-77
2023/10/12 02:59:38;;;;;;;12.40;2.75;;;12.50;99.90;;;;;;5062628;28;20079;-77
2023/10/12 03:02:22;;;;;;;13.13;2.22;;;12.40;99.90;;;;;;5045441;28;20156;-77
2023/10/12 03:04:48;;;;;;;11.20;1.85;;;12.50;99.90;;;;;;5016730;28;20083;-77
2023/10/12 03:07:22;;;;;;;10.65;2.00;;;12.40;99.90;;;;;;5026024;28;20411;-77
2023/10/12 03:09:59;;;;;;;9.77;2.22;;;12.40;99.90;;;;;;5030803;28;20503;-77
2023/10/12 03:12:25;;;;;;;10.25;2.22;;;12.40;99.90;;;;;;5046171;28;20043;-77
2023/10/12 03:14:51;;;;;;;6.72;1.98;;;12.40;99.90;;;;;;5054696;28;20040;-77
2023/10/12 03:17:24;;;;;;;12.85;2.25;;;12.30;99.90;;;;;;5019023;28;20052;-77
2023/10/12 03:19:56;;;;;;;7.65;1.92;;;12.30;99.90;;;;;;5040759;28;20458;-77
2023/10/12 03:22:34;;;;;;;13.05;2.35;;;12.30;99.90;;;;;;5029349;28;20044;-77
2023/10/12 03:25:19;;;;;;;10.80;1.98;;;12.20;99.90;;;;;;5021636;28;20559;-76
2023/10/12 03:27:50;;;;;;;9.45;2.20;;;12.30;99.90;;;;;;5032511;28;20041;-77
2023/10/12 03:30:17;;;;;;;13.65;2.35;;;12.20;99.90;;;;;;5044849;28;20044;-77
2023/10/12 03:32:49;;;;;;;9.98;2.00;;;12.30;99.90;;;;;;5030148;28;20032;-77
2023/10/12 03:35:23;;;;;;;10.35;2.75;;;12.20;99.90;;;;;;5044386;28;20040;-77
2023/10/12 03:37:52;;;;;;;11.07;2.42;;;12.20;99.90;;;;;;5044250;28;20029;-77
2023/10/12 03:43:12;;;;;;;9.43;1.75;;;12.20;99.90;;;;;;5060099;28;20041;-76
2023/10/12 03:45:49;;;;;;;14.38;2.30;;;12.20;99.90;;;;;;5046330;28;20037;-77
2023/10/12 03:48:25;;;;;;;5.20;1.58;;;12.20;99.90;;;;;;5031983;28;20037;-76
2023/10/12 03:51:11;;;;;;;5.40;1.45;;;12.20;99.90;;;;;;5023155;28;20037;-77
2023/10/12 03:53:45;;;;;;;8.80;1.52;;;12.20;99.90;;;;;;5060511;28;20270;-77
2023/10/12 03:56:14;;;;;;;6.68;1.80;;;12.10;99.90;;;;;;5044764;28;20166;-77
2023/10/12 03:58:47;;;;;;;10.38;2.00;;;12.10;99.90;;;;;;5042333;28;20098;-77
2023/10/12 04:01:22;;;;;;;9.13;1.98;;;12.20;99.90;;;;;;5033422;28;20052;-77
2023/10/12 04:03:58;;;;;;;8.07;2.25;;;12.20;99.90;;;;;;5056135;28;20069;-77
2023/10/12 04:06:29;;;;;;;8.57;1.75;;;12.20;99.90;;;;;;5030653;28;20076;-78
2023/10/12 04:08:58;;;;;;;7.28;2.05;;;12.20;99.90;;;;;;5036764;28;20036;-76
2023/10/12 04:17:09;;;;;;;12.10;2.20;;;12.30;99.90;;;;;;5055754;28;20095;-77
2023/10/12 04:19:36;;;;;;;14.18;2.20;;;12.20;99.90;;;;;;5030712;28;20127;-77
2023/10/12 04:22:17;;;;;;;5.05;1.60;;;12.20;99.90;;;;;;5049089;28;20454;-77
2023/10/12 04:24:43;;;;;;;12.05;2.10;;;12.30;99.90;;;;;;5035552;28;20090;-78
2023/10/12 04:27:24;;;;;;;9.32;1.90;;;12.20;99.90;;;;;;5027484;28;20045;-77
2023/10/12 04:29:58;;;;;;;13.10;1.60;;;12.30;99.90;;;;;;5035766;28;20105;-77
2023/10/12 04:38:23;;;;;;;11.05;2.13;;;12.30;99.90;;;;;;5051061;28;20228;-77
2023/10/12 04:43:36;;;;;;;10.20;1.98;;;12.30;99.90;;;;;;5051313;28;20518;-77
2023/10/12 04:46:26;;;;;;;13.68;3.25;;;12.30;99.90;;;;;;5040044;28;20040;-78
2023/10/12 04:48:50;;;;;;;9.10;2.00;;;12.30;99.90;;;;;;5057058;28;20499;-77
2023/10/12 04:51:19;;;;;;;8.35;2.60;;;12.30;99.90;;;;;;5024437;28;20045;-77
2023/10/12 04:53:58;;;;;;;7.53;1.67;;;12.30;99.90;;;;;;5038911;28;20041;-78
2023/10/12 04:56:26;;;;;;;7.18;2.15;;;12.30;99.90;;;;;;5040948;28;20083;-78
2023/10/12 04:58:56;;;;;;;14.20;2.22;;;12.30;99.90;;;;;;5050038;28;20048;-77
2023/10/12 05:01:38;;;;;;;11.52;2.75;;;12.30;99.90;;;;;;5047317;28;20097;-78
2023/10/12 05:04:09;;;;;;;10.95;2.30;;;12.30;99.90;;;;;;5039964;28;20526;-77
2023/10/12 05:06:46;;;;;;;17.92;2.55;;;12.30;99.90;;;;;;5041637;28;20044;-77
2023/10/12 05:09:12;;;;;;;13.20;2.33;;;12.40;99.90;;;;;;5016290;28;20400;-77
2023/10/12 05:11:38;;;;;;;8.07;2.20;;;12.30;99.90;;;;;;5042642;28;20124;-77
2023/10/12 05:14:14;;;;;;;8.93;1.75;;;12.40;99.90;;;;;;5026417;28;20056;-77
2023/10/12 05:16:42;;;;;;;10.27;1.63;;;12.30;99.90;;;;;;5028401;28;20072;-78
2023/10/12 05:19:11;;;;;;;7.80;1.75;;;12.30;99.90;;;;;;5039933;28;20403;-77
2023/10/12 05:21:38;;;;;;;12.57;1.75;;;12.40;99.90;;;;;;5022988;28;20714;-77
2023/10/12 05:24:04;;;;;;;8.73;1.60;;;12.30;99.90;;;;;;5023155;28;20086;-77
2023/10/12 05:26:30;;;;;;;8.38;1.90;;;12.30;99.90;;;;;;5050672;28;20045;-77
2023/10/12 05:29:18;;;;;;;10.30;2.25;;;12.30;99.90;;;;;;5034782;28;20043;-77
2023/10/12 05:31:48;;;;;;;10.88;2.08;;;12.30;99.90;;;;;;5045971;28;20055;-77
2023/10/12 05:34:34;;;;;;;12.32;1.83;;;12.30;99.90;;;;;;5051729;28;20044;-77
2023/10/12 05:37:23;;;;;;;12.60;2.13;;;12.20;99.90;;;;;;5011144;28;20045;-78
2023/10/12 05:39:52;;;;;;;8.77;1.88;;;12.20;99.90;;;;;;5037276;28;20106;-77
2023/10/12 05:42:25;;;;;;;8.98;1.52;;;12.20;99.90;;;;;;5025892;28;20128;-77
2023/10/12 05:44:53;;;;;;;8.02;1.80;;;12.20;99.90;;;;;;5016932;28;20056;-77
2023/10/12 05:47:29;;;;;;;13.93;2.40;;;12.20;99.90;;;;;;5020879;28;20491;-77
2023/10/12 05:49:57;;;;;;;11.15;2.00;;;12.20;99.90;;;;;;5040387;28;20120;-77
2023/10/12 05:52:24;;;;;;;5.68;1.35;;;12.20;99.90;;;;;;5036071;28;20051;-78
2023/10/12 05:54:57;;;;;;;7.25;2.20;;;12.20;99.90;;;;;;5037666;28;20055;-77
2023/10/12 05:57:29;;;;;;;8.85;2.42;;;12.20;99.90;;;;;;5039311;28;20048;-77
2023/10/12 05:59:58;;;;;;;10.63;1.90;;;12.20;99.90;;;;;;5046017;28;20044;-77
2023/10/12 06:02:26;;;;;;;8.32;1.50;;;12.20;99.90;;;;;;5039582;28;20033;-76
2023/10/12 06:04:52;;;;;;;9.02;1.77;;;12.10;99.90;;;;;;5025299;28;20072;-77
2023/10/12 06:07:17;;;;;;;4.70;1.40;;;12.10;99.90;;;;;;5021487;28;20045;-77
2023/10/12 06:09:43;;;;;;;10.27;1.67;;;11.90;99.90;;;;;;5042923;28;20526;-77
2023/10/12 06:12:12;;;;;;;8.32;1.23;;;11.90;99.90;;;;;;5052009;28;20071;-77
2023/10/12 06:14:38;;;;;;;11.70;1.73;;;11.80;99.90;;;;;;5037482;28;20102;-77
2023/10/12 06:17:07;;;;;;;7.68;1.63;;;11.70;99.90;;;;;;5027780;28;20072;-77
2023/10/12 06:19:36;;;;;;;9.73;1.73;;;11.60;99.90;;;;;;5047102;28;20036;-77
2023/10/12 06:22:23;;;;;;;7.88;1.58;;;11.60;99.90;;;;;;5028885;28;20748;-77
2023/10/12 06:24:52;;;;;;;;;;;11.50;99.90;;;;;;5040968;28;20037;-77
2023/10/12 06:29:50;;;;;;;7.57;1.63;;;11.30;99.90;;;;;;5047837;28;20068;-77
2023/10/12 06:32:19;;;;;;;9.07;1.63;;;11.20;99.90;;;;;;5058468;28;20045;-78
2023/10/12 06:45:48;;;;;;;10.27;1.88;;;11.10;99.90;;;;;;5052279;28;20503;-77
2023/10/12 06:51:02;;;;;;;7.07;1.95;;;11.00;99.90;;;;;;5053760;28;20124;-77
2023/10/12 06:53:33;;;;;;;8.75;2.00;;;11.00;99.90;;;;;;5024652;28;20084;-77
2023/10/12 06:56:15;;;;;;;8.30;1.23;;;11.00;99.90;;;;;;5043927;28;20041;-77
2023/10/12 06:59:11;;;;;;;7.85;1.85;;;11.00;99.90;;;;;;5028496;28;20045;-77
2023/10/12 07:01:51;;;;;;;7.95;1.50;;;11.00;99.90;;;;;;5031141;28;20129;-77
2023/10/12 07:04:38;;;;;;;5.93;1.60;;;11.00;99.90;;;;;;5037641;28;20099;-77
2023/10/12 07:07:07;;;;;;;6.78;1.50;;;11.00;99.90;;;;;;5027782;28;20033;-77
2023/10/12 07:09:40;;;;;;;8.70;1.90;;;11.00;99.90;;;;;;5028097;28;20188;-78
2023/10/12 07:12:19;;;;;;;15.50;2.40;;;11.00;99.90;;;;;;5032174;28;20083;-78
2023/10/12 07:14:54;;;;;;;5.25;2.00;;;11.10;99.90;;;;;;5046138;28;20083;-77
2023/10/12 07:17:37;;;;;;;10.25;2.00;;;11.10;99.90;;;;;;5038156;28;20077;-78
2023/10/12 07:20:07;;;;;;;6.35;1.52;;;11.10;99.90;;;;;;5028763;28;20033;-77
2023/10/12 07:22:38;;;;;;;12.45;2.00;;;11.20;99.90;;;;;;5026226;28;20121;-77
2023/10/12 07:25:04;;;;;;;8.55;2.00;;;11.30;99.90;;;;;;5047019;28;20491;-78
2023/10/12 07:27:48;;;;;;;8.85;1.95;;;11.40;99.90;;;;;;5043252;28;20100;-78
2023/10/12 07:30:22;;;;;;;8.57;2.03;;;11.40;99.90;;;;;;5017625;28;20030;-77
2023/10/12 07:32:59;;;;;;;8.75;1.80;;;11.50;99.90;;;;;;5025639;28;20373;-79
2023/10/12 07:35:42;;;;;;;13.68;2.55;;;11.50;99.90;;;;;;5017887;28;20517;-77
2023/10/12 07:38:13;;;;;;;11.07;2.25;;;11.60;99.90;;;;;;5037516;28;20040;-78
2023/10/12 07:43:22;;;;;;;7.00;2.20;;;11.70;99.90;;;;;;5040615;28;20045;-78
2023/10/12 07:45:50;;;;;;;6.32;1.80;;;11.90;99.90;;;;;;5054933;28;20064;-77
2023/10/12 07:48:53;;;;;;;12.05;2.33;;;12.00;99.90;;;;;;5027819;28;20037;-78
2023/10/12 07:51:16;;;;;;;11.57;2.17;;;12.00;99.90;;;;;;5039023;28;20045;-78
2023/10/12 07:53:50;;;;;;;10.93;2.25;;;12.10;99.90;;;;;;5046388;28;20100;-77
2023/10/12 07:56:16;;;;;;;7.80;2.08;;;12.20;99.90;;;;;;5041595;28;20128;-78
2023/10/12 07:58:51;;;;;;;8.90;2.47;;;12.30;99.90;;;;;;5046561;28;20040;-78
2023/10/12 08:01:26;;;;;;;8.07;2.00;;;12.30;99.90;;;;;;5036406;28;20053;-78
2023/10/12 08:03:52;;;;;;;15.93;1.90;;;12.40;99.90;;;;;;5030159;28;20812;-77
2023/10/12 08:06:28;;;;;;;11.80;1.58;;;12.60;99.90;;;;;;5039161;28;21227;-76
2023/10/12 08:09:05;;;;;;;6.25;1.50;;;12.60;99.90;;;;;;5025971;28;20041;-78
2023/10/12 08:11:34;;;;;;;10.70;2.13;;;12.60;99.90;;;;;;5041032;28;20040;-78
2023/10/12 08:14:19;;;;;;;11.20;2.03;;;12.60;99.90;;;;;;5042999;28;20047;-78
2023/10/12 08:17:24;;;;;;;12.13;1.77;;;12.70;99.90;;;;;;5038036;28;20037;-78
2023/10/12 08:19:38;;;;;;;11.00;1.88;;;12.80;99.90;;;;;;5045446;28;20106;-78
2023/10/12 08:22:09;;;;;;;7.35;2.05;;;13.00;99.90;;;;;;5040536;28;20459;-78
2023/10/12 08:24:39;;;;;;;5.13;1.45;;;13.00;99.90;;;;;;5037653;28;20045;-77
2023/10/12 08:27:06;;;;;;;11.98;2.55;;;13.10;99.90;;;;;;5038453;28;20040;-77
2023/10/12 08:32:11;;;;;;;4.88;1.77;;;13.10;99.90;;;;;;5039150;28;20172;-77
2023/10/12 08:39:39;;;;;;;11.13;1.42;;;13.30;99.90;;;;;;5039269;28;20071;-77
2023/10/12 08:44:55;;;;;;;8.73;1.50;;;13.40;99.90;;;;;;5044083;28;20056;-78
2023/10/12 08:47:26;;;;;;;5.75;1.30;;;13.50;99.90;;;;;;5024830;28;20131;-79
2023/10/12 08:50:04;;;;;;;6.13;1.40;;;13.50;99.90;;;;;;5056279;28;20071;-79
2023/10/12 08:52:31;;;;;;;8.82;1.40;;;13.60;99.90;;;;;;5020488;28;20049;-78
2023/10/12 08:55:03;;;;;;;8.13;1.38;;;13.50;99.90;;;;;;5026903;28;20048;-78
2023/10/12 08:57:42;;;;;;;10.05;1.30;;;13.50;99.90;;;;;;5025353;28;20072;-79
2023/10/12 09:00:25;;;;;;;3.65;1.63;;;13.50;99.90;;;;;;5055583;28;20044;-76
2023/10/12 09:03:05;;;;;;;7.78;1.55;;;13.60;99.90;;;;;;5029313;28;20553;-76
2023/10/12 09:05:35;;;;;;;7.70;1.23;;;13.60;99.90;;;;;;5033618;28;20039;-76
2023/10/12 09:13:38;;;;;;;6.20;1.33;;;14.10;99.90;;;;;;5039237;28;20040;-77
2023/10/12 09:16:09;;;;;;;8.38;1.40;;;14.20;99.90;;;;;;5038622;28;20575;-76
2023/10/12 09:18:46;;;;;;;9.07;1.33;;;14.40;99.90;;;;;;5038096;28;20052;-77
2023/10/12 09:23:52;;;;;;;4.25;0.90;;;14.70;99.90;;;;;;5034737;28;20040;-75
2023/10/12 09:26:30;;;;;;;6.13;2.05;;;14.60;99.90;;;;;;5034255;28;20052;-76
2023/10/12 09:29:08;;;;;;;5.22;1.58;;;14.70;99.90;;;;;;5023011;28;20033;-76
2023/10/12 09:36:55;;;;;;;8.75;1.05;;;14.90;99.90;;;;;;5028016;28;20045;-76
2023/10/12 09:39:27;;;;;;;2.92;0.70;;;15.00;99.90;;;;;;5039348;28;20389;-76
2023/10/12 09:41:56;;;;;;;5.35;0.70;;;15.00;99.90;;;;;;5035324;28;20044;-76
2023/10/12 09:44:26;;;;;;;13.32;1.00;;;14.90;99.90;;;;;;5031020;28;20028;-76
2023/10/12 09:46:56;;;;;;;9.50;1.00;;;14.80;99.90;;;;;;5017029;28;20049;-76
2023/10/12 09:49:27;;;;;;;6.53;1.20;;;14.80;99.90;;;;;;5039986;28;20068;-76
2023/10/12 09:51:56;;;;;;;9.35;1.02;;;14.90;99.90;;;;;;5044961;28;20035;-75
2023/10/12 09:54:49;;;;;;;8.57;1.10;;;14.90;99.90;;;;;;5046608;28;20041;-75
2023/10/12 09:57:26;;;;;;;5.60;0.98;;;14.90;99.90;;;;;;5059839;28;20037;-75
2023/10/12 10:00:01;;;;;;;4.30;0.80;;;14.80;99.90;;;;;;5030331;28;20098;-76
2023/10/12 10:02:27;;;;;;;6.47;1.35;;;14.90;99.90;;;;;;5024682;28;20044;-76
2023/10/12 10:05:01;;;;;;;4.88;0.73;;;15.00;99.90;;;;;;5048096;28;20037;-75
2023/10/12 10:07:36;;;;;;;2.70;0.80;;;15.30;99.90;;;;;;5061651;28;20041;-75
2023/10/12 10:10:08;;;;;;;5.18;0.90;;;15.40;99.90;;;;;;5045445;28;20400;-76
2023/10/12 10:12:35;;;;;;;3.67;0.80;;;15.50;99.90;;;;;;5041619;28;20037;-76
2023/10/12 10:15:10;;;;;;;4.63;0.93;;;15.70;99.90;;;;;;5045094;28;20543;-75
2023/10/12 10:17:46;;;;;;;10.23;1.40;;;15.90;99.90;;;;;;5038432;28;20403;-75
2023/10/12 10:23:01;;;;;;;6.75;1.02;;;16.00;99.90;;;;;;5044647;28;20341;-76
2023/10/12 10:25:46;;;;;;;7.50;0.90;;;16.30;99.90;;;;;;5033623;28;20052;-75
2023/10/12 10:28:32;;;;;;;6.43;1.50;;;16.50;99.90;;;;;;5031540;28;20036;-76
2023/10/12 10:31:01;;;;;;;9.00;1.02;;;16.70;99.90;;;;;;5040039;28;20558;-75
2023/10/12 10:33:28;;;;;;;5.00;1.25;;;16.80;99.90;;;;;;5039856;28;20596;-76
2023/10/12 10:36:03;;;;;;;3.80;0.73;;;16.90;99.90;;;;;;5046231;28;20033;-75
2023/10/12 10:38:33;;;;;;;3.47;0.57;;;17.00;99.90;;;;;;5043532;28;20036;-76
2023/10/12 10:41:07;;;;;;;5.18;0.80;;;17.10;99.90;;;;;;5036520;28;20039;-74
2023/10/12 10:43:37;;;;;;;4.20;1.08;;;17.10;99.90;;;;;;5041772;28;20504;-75
2023/10/12 10:46:06;;;;;;;10.73;0.90;;;17.30;99.90;;;;;;5022741;28;20042;-75
2023/10/12 10:48:34;;;;;;;5.93;1.55;;;17.40;99.90;;;;;;5037757;28;20043;-74
2023/10/12 10:51:07;;;;;;;8.50;0.98;;;17.40;99.90;;;;;;5021416;28;20025;-75
2023/10/12 10:53:37;;;;;;;3.92;0.77;;;17.40;99.90;;;;;;5032547;28;20427;-75
2023/10/12 10:56:14;;;;;;;4.00;0.80;;;17.30;99.90;;;;;;5021127;28;20045;-74
2023/10/12 10:58:41;;;;;;;4.80;1.10;;;17.30;99.90;;;;;;5044670;28;20514;-75
2023/10/12 11:01:12;;;;;;;2.25;0.63;;;17.30;99.90;;;;;;5042800;28;20044;-74
2023/10/12 11:03:46;;;;;;;5.78;0.90;;;17.30;99.90;;;;;;5030232;28;20037;-74
2023/10/12 11:06:21;;;;;;;4.30;0.80;;;17.30;99.90;;;;;;5039072;28;20523;-74
2023/10/12 11:09:04;;;;;;;5.25;0.90;;;17.30;99.90;;;;;;5038267;28;20403;-75
2023/10/12 11:11:37;;;;;;;7.32;0.70;;;17.20;99.90;;;;;;5029130;28;20458;-75
2023/10/12 11:14:04;;;;;;;7.13;0.85;;;17.00;99.90;;;;;;5042930;28;20149;-74
2023/10/12 11:16:30;;;;;;;5.78;0.82;;;17.00;99.90;;;;;;5044206;28;20044;-74
2023/10/12 11:18:57;;;;;;;4.68;0.60;;;16.90;99.90;;;;;;5023833;28;20499;-74
2023/10/12 11:21:27;;;;;;;7.07;1.52;;;16.80;99.90;;;;;;5041379;28;20368;-75
2023/10/12 11:24:03;;;;;;;4.30;0.82;;;16.80;99.90;;;;;;5025211;28;20446;-74
2023/10/12 11:26:36;;;;;;;7.63;1.05;;;16.80;99.90;;;;;;5045710;28;20041;-74
2023/10/12 11:29:06;;;;;;;9.70;1.55;;;16.80;99.90;;;;;;5037552;28;20052;-74
2023/10/12 11:31:36;;;;;;;5.03;0.80;;;16.70;99.90;;;;;;5042329;28;20040;-74
2023/10/12 11:34:11;;;;;;;5.90;0.95;;;16.60;99.90;;;;;;5037688;28;20041;-74
2023/10/12 11:36:38;;;;;;;5.82;1.58;;;16.50;99.90;;;;;;5038100;28;20049;-74
2023/10/12 11:39:16;;;;;;;2.72;0.80;;;16.40;99.90;;;;;;5057505;28;20048;-75
2023/10/12 11:42:01;;;;;;;6.13;0.80;;;16.30;99.90;;;;;;5041032;28;20055;-75
2023/10/12 11:44:42;;;;;;;4.80;1.13;;;16.30;99.90;;;;;;5047531;28;21581;-75
2023/10/12 11:47:28;;;;;;;8.68;1.33;;;16.40;99.90;;;;;;5029126;28;20032;-75
2023/10/12 11:49:58;;;;;;;7.60;1.73;;;16.40;99.90;;;;;;5039805;28;20561;-75
2023/10/12 11:52:29;;;;;;;7.00;1.08;;;16.50;99.90;;;;;;5037957;28;20137;-75
2023/10/12 11:55:31;;;;;;;6.55;0.75;;;16.50;99.90;;;;;;5045214;28;20467;-75
2023/10/12 11:58:06;;;;;;;9.15;0.90;;;16.60;99.90;;;;;;5035392;28;20040;-75
2023/10/12 12:00:37;;;;;;;5.50;0.93;;;16.60;99.90;;;;;;5027955;28;20161;-74
2023/10/12 12:03:08;;;;;;;2.85;0.93;;;16.70;99.90;;;;;;5039671;28;20107;-75
2023/10/12 12:05:36;;;;;;;5.63;0.77;;;16.70;99.90;;;;;;5059009;28;20063;-74
2023/10/12 12:08:10;;;;;;;4.00;1.00;;;16.60;99.90;;;;;;5042290;28;20041;-75
2023/10/12 12:10:44;;;;;;;4.38;1.00;;;16.50;99.90;;;;;;5043692;28;20099;-74
2023/10/12 12:13:12;;;;;;;7.35;0.82;;;16.40;99.90;;;;;;5027097;28;20067;-74
2023/10/12 12:15:44;;;;;;;5.70;0.65;;;16.30;99.90;;;;;;5028217;28;20040;-74
2023/10/12 12:18:19;;;;;;;4.47;0.82;;;16.10;99.90;;;;;;5039750;28;20549;-74
2023/10/12 12:20:51;;;;;;;8.52;1.30;;;16.00;99.90;;;;;;5034262;28;20065;-74
2023/10/12 12:23:36;;;;;;;4.82;1.10;;;15.90;99.90;;;;;;5043825;28;20052;-74
2023/10/12 12:26:07;;;;;;;11.88;1.48;;;15.90;99.90;;;;;;5050528;28;20050;-74
2023/10/12 12:28:43;;;;;;;5.78;0.95;;;15.80;99.90;;;;;;5043200;28;20372;-74
2023/10/12 12:31:10;;;;;;;4.63;0.80;;;15.80;99.90;;;;;;5029241;28;20030;-74
2023/10/12 12:33:41;;;;;;;6.95;0.98;;;15.80;99.90;;;;;;5024836;28;20123;-74
2023/10/12 12:36:10;;;;;;;5.15;0.85;;;15.70;99.90;;;;;;5020786;28;20363;-74
2023/10/12 12:41:20;;;;;;;9.45;1.67;;;15.70;99.90;;;;;;5036364;28;20131;-74
2023/10/12 12:43:47;;;;;;;5.55;0.90;;;15.70;99.90;;;;;;5031655;28;20521;-74
2023/10/12 12:46:13;;;;;;;6.20;1.02;;;15.80;99.90;;;;;;5041458;28;20037;-74
2023/10/12 12:48:40;;;;;;;8.98;1.40;;;15.80;99.90;;;;;;5043234;28;20072;-74
2023/10/12 12:51:11;;;;;;;6.55;1.30;;;15.80;99.90;;;;;;5034145;28;20037;-73
2023/10/12 12:53:37;;;;;;;6.70;0.82;;;15.70;99.90;;;;;;5035770;28;20057;-74
2023/10/12 12:56:03;;;;;;;10.05;1.10;;;15.80;99.90;;;;;;5040175;28;20477;-73
2023/10/12 12:58:29;;;;;;;5.57;1.23;;;15.70;99.90;;;;;;5032095;28;20036;-73
2023/10/12 13:00:55;;;;;;;6.10;1.00;;;15.50;99.90;;;;;;5028185;28;20127;-74
2023/10/12 13:03:22;;;;;;;2.22;0.57;;;15.60;99.90;;;;;;5033085;28;20072;-74
2023/10/12 13:05:47;;;;;;;8.50;0.80;;;15.50;99.90;;;;;;5050808;28;20543;-74
2023/10/12 13:08:16;;;;;;;9.20;0.82;;;15.50;99.90;;;;;;5032114;28;20065;-74
2023/10/12 13:10:42;;;;;;;6.22;1.13;;;15.40;99.90;;;;;;5027025;28;20051;-74
2023/10/12 13:13:08;;;;;;;3.53;0.88;;;15.30;99.90;;;;;;5031810;28;20041;-74
2023/10/12 13:15:41;;;;;;;9.95;1.08;;;15.20;99.90;;;;;;5024530;28;20128;-74
2023/10/12 13:18:14;;;;;;;3.40;1.15;;;15.20;99.90;;;;;;5042729;28;20041;-74
2023/10/12 13:20:46;;;;;;;6.30;1.00;;;15.20;99.90;;;;;;5032835;28;20381;-74
2023/10/12 13:23:14;;;;;;;9.35;1.45;;;15.10;99.90;;;;;;5009054;28;20041;-74
2023/10/12 13:25:40;;;;;;;9.45;1.88;;;15.10;99.90;;;;;;5038532;28;20037;-74
2023/10/12 13:28:05;;;;;;;5.05;1.30;;;15.10;99.90;;;;;;5032179;28;20781;-73
2023/10/12 13:30:33;;;;;;;5.72;0.88;;;15.10;99.90;;;;;;5037617;28;20049;-74
2023/10/12 13:32:59;;;;;;;4.43;0.85;;;15.00;99.90;;;;;;5041952;28;20044;-74
2023/10/12 13:35:31;;;;;;;6.95;1.20;;;15.00;99.90;;;;;;5038589;28;20049;-74
2023/10/12 13:38:09;;;;;;;8.07;1.23;;;15.00;99.90;;;;;;5042390;28;20462;-74
2023/10/12 13:40:50;;;;;;;4.47;0.80;;;15.00;99.90;;;;;;5028876;28;20049;-74
2023/10/12 13:43:21;;;;;;;5.80;1.05;;;15.00;99.90;;;;;;5038030;28;20037;-74
2023/10/12 13:45:56;;;;;;;3.63;0.80;;;15.00;99.90;;;;;;5013691;28;20036;-74
2023/10/12 13:48:27;;;;;;;4.00;0.73;;;15.00;99.90;;;;;;5020900;28;20072;-74
2023/10/12 13:51:01;;;;;;;6.15;1.13;;;14.90;99.90;;;;;;5019799;28;20408;-73
2023/10/12 13:53:27;;;;;;;6.25;1.15;;;14.90;99.90;;;;;;5026326;28;20041;-74
2023/10/12 13:55:56;;;;;;;5.32;0.70;;;14.90;99.90;;;;;;5041990;28;20048;-74
2023/10/12 13:58:24;;;;;;;5.80;0.85;;;14.90;99.90;;;;;;5040808;28;20571;-74
2023/10/12 14:00:54;;;;;;;6.05;1.30;;;14.90;99.90;;;;;;5040951;28;20148;-74
2023/10/12 14:03:29;;;;;;;2.78;0.63;;;15.00;99.90;;;;;;5039456;28;20048;-74
2023/10/12 14:05:56;;;;;;;7.80;1.63;;;14.90;99.90;;;;;;5015145;28;20112;-74
2023/10/12 14:08:23;;;;;;;6.55;1.00;;;14.90;99.90;;;;;;5056273;28;20045;-73
2023/10/12 14:10:51;;;;;;;6.03;1.55;;;14.80;99.90;;;;;;5038685;28;20037;-74
2023/10/12 14:13:17;;;;;;;3.75;1.27;;;14.70;99.90;;;;;;5033222;28;20045;-73
2023/10/12 14:15:43;;;;;;;6.40;0.90;;;14.70;99.90;;;;;;5022173;28;20033;-74
2023/10/12 14:18:16;;;;;;;4.85;1.00;;;14.60;99.90;;;;;;5021656;28;20411;-74
2023/10/12 14:20:43;;;;;;;4.70;0.80;;;14.50;99.90;;;;;;5024664;28;20094;-74
2023/10/12 14:23:09;;;;;;;7.90;1.25;;;14.40;99.90;;;;;;5036002;28;20472;-73
2023/10/12 14:25:42;;;;;;;5.97;0.85;;;14.30;99.90;;;;;;5043793;28;20063;-74
2023/10/12 14:28:09;;;;;;;5.32;1.00;;;14.20;99.90;;;;;;5028174;28;20520;-74
2023/10/12 14:30:36;;;;;;;10.63;1.92;;;14.20;99.90;;;;;;5023008;28;20034;-74
2023/10/12 14:33:03;;;;;;;5.50;1.30;;;14.10;99.90;;;;;;5036258;28;20471;-74
2023/10/12 14:35:40;;;;;;;4.78;1.42;;;14.10;99.90;;;;;;5026806;28;20028;-74
2023/10/12 14:38:08;;;;;;;2.28;0.70;;;14.20;99.90;;;;;;5047028;28;20454;-74
2023/10/12 14:40:40;;;;;;;7.28;0.93;;;14.10;99.90;;;;;;5025971;28;20456;-73